sensor_id;sensor_type;location;lat;lon;timestamp;P1;durP1;ratioP1;P2;durP2;ratioP2
22121;SDS011;11227;53.046;10.512;2022-12-16T00:00:24;14.38;;;7.05;;
22121;SDS011;11227;53.046;10.512;2022-12-16T00:04:26;18.48;;;7.40;;
22121;SDS011;11227;53.046;10.512;2022-12-16T00:08:30;14.73;;;7.35;;
22121;SDS011;11227;53.046;10.512;2022-12-16T00:12:32;13.77;;;7.20;;
22121;SDS011;11227;53.046;10.512;2022-12-16T00:16:34;15.13;;;7.43;;
22121;SDS011;11227;53.046;10.512;2022-12-16T00:20:36;14.75;;;6.72;;
22121;SDS011;11227;53.046;10.512;2022-12-16T00:24:38;14.15;;;7.57;;
22121;SDS011;11227;53.046;10.512;2022-12-16T00:28:42;15.57;;;6.90;;
22121;SDS011;11227;53.046;10.512;2022-12-16T00:32:44;12.27;;;6.47;;
22121;SDS011;11227;53.046;10.512;2022-12-16T00:36:46;13.15;;;6.45;;
22121;SDS011;11227;53.046;10.512;2022-12-16T00:40:47;12.23;;;6.50;;
22121;SDS011;11227;53.046;10.512;2022-12-16T00:44:52;12.52;;;6.07;;
22121;SDS011;11227;53.046;10.512;2022-12-16T00:48:54;16.10;;;6.80;;
22121;SDS011;11227;53.046;10.512;2022-12-16T00:52:56;12.15;;;6.70;;
22121;SDS011;11227;53.046;10.512;2022-12-16T00:56:58;15.27;;;6.93;;
22121;SDS011;11227;53.046;10.512;2022-12-16T01:01:00;12.90;;;5.97;;
22121;SDS011;11227;53.046;10.512;2022-12-16T01:05:03;14.13;;;6.82;;
22121;SDS011;11227;53.046;10.512;2022-12-16T01:09:05;11.88;;;6.55;;
22121;SDS011;11227;53.046;10.512;2022-12-16T01:13:08;12.65;;;6.10;;
22121;SDS011;11227;53.046;10.512;2022-12-16T01:17:09;11.45;;;5.72;;
22121;SDS011;11227;53.046;10.512;2022-12-16T01:21:12;10.30;;;6.00;;
22121;SDS011;11227;53.046;10.512;2022-12-16T01:25:14;11.10;;;5.95;;
22121;SDS011;11227;53.046;10.512;2022-12-16T01:29:17;13.30;;;6.68;;
22121;SDS011;11227;53.046;10.512;2022-12-16T01:33:19;11.80;;;6.40;;
22121;SDS011;11227;53.046;10.512;2022-12-16T01:37:21;15.27;;;6.53;;
22121;SDS011;11227;53.046;10.512;2022-12-16T01:41:24;11.35;;;6.00;;
22121;SDS011;11227;53.046;10.512;2022-12-16T01:45:30;10.75;;;5.60;;
22121;SDS011;11227;53.046;10.512;2022-12-16T01:49:38;9.95;;;5.82;;
22121;SDS011;11227;53.046;10.512;2022-12-16T01:53:48;9.50;;;5.10;;
22121;SDS011;11227;53.046;10.512;2022-12-16T01:58:00;13.75;;;6.35;;
22121;SDS011;11227;53.046;10.512;2022-12-16T02:02:23;10.93;;;6.38;;
22121;SDS011;11227;53.046;10.512;2022-12-16T02:06:26;10.45;;;5.35;;
22121;SDS011;11227;53.046;10.512;2022-12-16T02:23:53;10.75;;;5.28;;
22121;SDS011;11227;53.046;10.512;2022-12-16T02:28:13;11.13;;;5.45;;
22121;SDS011;11227;53.046;10.512;2022-12-16T02:32:52;9.43;;;5.32;;
22121;SDS011;11227;53.046;10.512;2022-12-16T02:41:41;8.30;;;5.00;;
22121;SDS011;11227;53.046;10.512;2022-12-16T02:45:46;10.45;;;5.05;;
22121;SDS011;11227;53.046;10.512;2022-12-16T02:49:50;10.07;;;5.43;;
22121;SDS011;11227;53.046;10.512;2022-12-16T02:53:53;8.85;;;4.97;;
22121;SDS011;11227;53.046;10.512;2022-12-16T02:58:01;8.88;;;5.35;;
22121;SDS011;11227;53.046;10.512;2022-12-16T03:02:18;9.23;;;5.18;;
22121;SDS011;11227;53.046;10.512;2022-12-16T03:06:25;9.20;;;5.25;;
22121;SDS011;11227;53.046;10.512;2022-12-16T03:10:30;7.80;;;4.70;;
22121;SDS011;11227;53.046;10.512;2022-12-16T03:14:45;10.13;;;4.97;;
22121;SDS011;11227;53.046;10.512;2022-12-16T03:18:51;8.80;;;4.78;;
22121;SDS011;11227;53.046;10.512;2022-12-16T03:22:57;9.80;;;4.82;;
22121;SDS011;11227;53.046;10.512;2022-12-16T03:31:17;7.53;;;4.40;;
22121;SDS011;11227;53.046;10.512;2022-12-16T03:35:32;8.43;;;4.85;;
22121;SDS011;11227;53.046;10.512;2022-12-16T03:39:43;7.72;;;4.32;;
22121;SDS011;11227;53.046;10.512;2022-12-16T03:43:51;7.88;;;4.03;;
22121;SDS011;11227;53.046;10.512;2022-12-16T03:47:55;10.30;;;5.15;;
22121;SDS011;11227;53.046;10.512;2022-12-16T03:51:58;8.75;;;4.97;;
22121;SDS011;11227;53.046;10.512;2022-12-16T03:56:00;8.13;;;4.93;;
22121;SDS011;11227;53.046;10.512;2022-12-16T04:00:02;7.18;;;4.20;;
22121;SDS011;11227;53.046;10.512;2022-12-16T04:04:05;7.72;;;4.65;;
22121;SDS011;11227;53.046;10.512;2022-12-16T04:08:09;9.57;;;4.70;;
22121;SDS011;11227;53.046;10.512;2022-12-16T04:12:11;9.30;;;4.55;;
22121;SDS011;11227;53.046;10.512;2022-12-16T04:16:31;8.48;;;4.60;;
22121;SDS011;11227;53.046;10.512;2022-12-16T04:20:52;7.43;;;4.32;;
22121;SDS011;11227;53.046;10.512;2022-12-16T04:25:19;7.97;;;4.25;;
22121;SDS011;11227;53.046;10.512;2022-12-16T04:29:23;10.23;;;4.50;;
22121;SDS011;11227;53.046;10.512;2022-12-16T04:33:25;7.82;;;4.45;;
22121;SDS011;11227;53.046;10.512;2022-12-16T04:37:45;8.00;;;4.35;;
22121;SDS011;11227;53.046;10.512;2022-12-16T04:42:06;5.88;;;4.28;;
22121;SDS011;11227;53.046;10.512;2022-12-16T04:46:26;8.70;;;4.00;;
22121;SDS011;11227;53.046;10.512;2022-12-16T04:50:47;8.55;;;4.35;;
22121;SDS011;11227;53.046;10.512;2022-12-16T04:55:08;8.35;;;4.07;;
22121;SDS011;11227;53.046;10.512;2022-12-16T04:59:29;8.77;;;4.47;;
22121;SDS011;11227;53.046;10.512;2022-12-16T05:03:49;7.43;;;4.70;;
22121;SDS011;11227;53.046;10.512;2022-12-16T05:08:10;7.45;;;4.03;;
22121;SDS011;11227;53.046;10.512;2022-12-16T05:12:30;9.27;;;4.40;;
22121;SDS011;11227;53.046;10.512;2022-12-16T05:16:51;9.55;;;4.88;;
22121;SDS011;11227;53.046;10.512;2022-12-16T05:21:11;7.40;;;4.55;;
22121;SDS011;11227;53.046;10.512;2022-12-16T05:25:32;7.90;;;4.43;;
22121;SDS011;11227;53.046;10.512;2022-12-16T05:29:52;7.85;;;3.90;;
22121;SDS011;11227;53.046;10.512;2022-12-16T05:34:13;5.72;;;3.83;;
22121;SDS011;11227;53.046;10.512;2022-12-16T05:38:33;6.85;;;4.25;;
22121;SDS011;11227;53.046;10.512;2022-12-16T05:42:54;8.25;;;4.05;;
22121;SDS011;11227;53.046;10.512;2022-12-16T05:47:17;7.90;;;4.05;;
22121;SDS011;11227;53.046;10.512;2022-12-16T05:51:37;6.10;;;4.13;;
22121;SDS011;11227;53.046;10.512;2022-12-16T05:55:58;9.10;;;3.75;;
22121;SDS011;11227;53.046;10.512;2022-12-16T06:00:18;8.00;;;4.15;;
22121;SDS011;11227;53.046;10.512;2022-12-16T06:04:39;9.02;;;4.20;;
22121;SDS011;11227;53.046;10.512;2022-12-16T06:08:59;7.10;;;4.38;;
22121;SDS011;11227;53.046;10.512;2022-12-16T06:13:20;6.55;;;4.03;;
22121;SDS011;11227;53.046;10.512;2022-12-16T06:17:41;6.60;;;3.72;;
22121;SDS011;11227;53.046;10.512;2022-12-16T06:22:02;8.98;;;4.20;;
22121;SDS011;11227;53.046;10.512;2022-12-16T06:26:23;7.55;;;4.22;;
22121;SDS011;11227;53.046;10.512;2022-12-16T06:30:43;5.40;;;3.35;;
22121;SDS011;11227;53.046;10.512;2022-12-16T06:35:04;6.13;;;3.95;;
22121;SDS011;11227;53.046;10.512;2022-12-16T06:39:24;9.48;;;4.43;;
22121;SDS011;11227;53.046;10.512;2022-12-16T06:43:51;6.30;;;4.07;;
22121;SDS011;11227;53.046;10.512;2022-12-16T06:48:11;8.68;;;4.45;;
22121;SDS011;11227;53.046;10.512;2022-12-16T06:52:32;5.43;;;3.75;;
22121;SDS011;11227;53.046;10.512;2022-12-16T06:56:53;6.65;;;3.50;;
22121;SDS011;11227;53.046;10.512;2022-12-16T07:01:13;8.05;;;4.32;;
22121;SDS011;11227;53.046;10.512;2022-12-16T07:05:35;6.55;;;3.75;;
22121;SDS011;11227;53.046;10.512;2022-12-16T07:09:56;6.25;;;4.20;;
22121;SDS011;11227;53.046;10.512;2022-12-16T07:14:16;7.07;;;3.42;;
22121;SDS011;11227;53.046;10.512;2022-12-16T07:18:37;4.93;;;3.47;;
22121;SDS011;11227;53.046;10.512;2022-12-16T07:22:57;5.68;;;3.53;;
22121;SDS011;11227;53.046;10.512;2022-12-16T07:27:22;7.65;;;4.13;;
22121;SDS011;11227;53.046;10.512;2022-12-16T07:31:42;7.47;;;4.05;;
22121;SDS011;11227;53.046;10.512;2022-12-16T07:36:03;6.95;;;3.63;;
22121;SDS011;11227;53.046;10.512;2022-12-16T07:40:24;8.98;;;4.10;;
22121;SDS011;11227;53.046;10.512;2022-12-16T07:44:44;6.85;;;3.83;;
22121;SDS011;11227;53.046;10.512;2022-12-16T07:49:05;7.43;;;3.88;;
22121;SDS011;11227;53.046;10.512;2022-12-16T07:53:25;8.38;;;4.70;;
22121;SDS011;11227;53.046;10.512;2022-12-16T07:57:49;8.93;;;4.43;;
22121;SDS011;11227;53.046;10.512;2022-12-16T08:02:10;8.55;;;4.22;;
22121;SDS011;11227;53.046;10.512;2022-12-16T08:06:31;10.95;;;5.13;;
22121;SDS011;11227;53.046;10.512;2022-12-16T08:10:51;13.80;;;5.38;;
22121;SDS011;11227;53.046;10.512;2022-12-16T08:15:11;11.38;;;5.30;;
22121;SDS011;11227;53.046;10.512;2022-12-16T08:19:32;20.55;;;6.07;;
22121;SDS011;11227;53.046;10.512;2022-12-16T08:23:54;27.20;;;7.40;;
22121;SDS011;11227;53.046;10.512;2022-12-16T08:28:15;24.75;;;6.45;;
22121;SDS011;11227;53.046;10.512;2022-12-16T08:32:35;25.17;;;5.97;;
22121;SDS011;11227;53.046;10.512;2022-12-16T08:37:02;19.60;;;6.07;;
22121;SDS011;11227;53.046;10.512;2022-12-16T08:41:22;19.67;;;6.57;;
22121;SDS011;11227;53.046;10.512;2022-12-16T08:45:43;17.73;;;6.13;;
22121;SDS011;11227;53.046;10.512;2022-12-16T08:50:04;17.83;;;6.80;;
22121;SDS011;11227;53.046;10.512;2022-12-16T08:54:25;20.75;;;6.45;;
22121;SDS011;11227;53.046;10.512;2022-12-16T08:58:45;18.40;;;7.15;;
22121;SDS011;11227;53.046;10.512;2022-12-16T09:03:05;23.70;;;7.35;;
22121;SDS011;11227;53.046;10.512;2022-12-16T09:07:26;22.20;;;7.07;;
22121;SDS011;11227;53.046;10.512;2022-12-16T09:11:46;18.65;;;6.57;;
22121;SDS011;11227;53.046;10.512;2022-12-16T09:16:07;23.33;;;7.88;;
22121;SDS011;11227;53.046;10.512;2022-12-16T09:20:27;28.42;;;7.30;;
22121;SDS011;11227;53.046;10.512;2022-12-16T09:24:48;27.83;;;6.35;;
22121;SDS011;11227;53.046;10.512;2022-12-16T09:29:08;20.90;;;7.50;;
22121;SDS011;11227;53.046;10.512;2022-12-16T09:33:28;22.25;;;7.35;;
22121;SDS011;11227;53.046;10.512;2022-12-16T09:37:49;20.63;;;6.90;;
22121;SDS011;11227;53.046;10.512;2022-12-16T09:42:27;22.35;;;7.25;;
22121;SDS011;11227;53.046;10.512;2022-12-16T09:46:58;21.10;;;7.72;;
22121;SDS011;11227;53.046;10.512;2022-12-16T09:51:27;21.58;;;6.53;;
22121;SDS011;11227;53.046;10.512;2022-12-16T09:55:48;19.75;;;6.78;;
22121;SDS011;11227;53.046;10.512;2022-12-16T10:00:16;20.73;;;6.80;;
22121;SDS011;11227;53.046;10.512;2022-12-16T10:04:43;18.95;;;6.88;;
22121;SDS011;11227;53.046;10.512;2022-12-16T10:09:27;20.70;;;7.40;;
22121;SDS011;11227;53.046;10.512;2022-12-16T10:14:19;21.05;;;6.60;;
22121;SDS011;11227;53.046;10.512;2022-12-16T10:23:52;16.65;;;6.70;;
22121;SDS011;11227;53.046;10.512;2022-12-16T10:28:44;17.10;;;6.95;;
22121;SDS011;11227;53.046;10.512;2022-12-16T10:33:12;23.77;;;6.33;;
22121;SDS011;11227;53.046;10.512;2022-12-16T10:37:35;17.17;;;6.30;;
22121;SDS011;11227;53.046;10.512;2022-12-16T10:41:58;21.55;;;6.93;;
22121;SDS011;11227;53.046;10.512;2022-12-16T10:46:22;15.68;;;6.22;;
22121;SDS011;11227;53.046;10.512;2022-12-16T10:50:46;15.00;;;6.65;;
22121;SDS011;11227;53.046;10.512;2022-12-16T10:55:12;18.13;;;6.60;;
22121;SDS011;11227;53.046;10.512;2022-12-16T10:59:37;18.15;;;6.95;;
22121;SDS011;11227;53.046;10.512;2022-12-16T11:03:59;15.90;;;6.35;;
22121;SDS011;11227;53.046;10.512;2022-12-16T11:08:30;16.63;;;6.22;;
22121;SDS011;11227;53.046;10.512;2022-12-16T11:12:53;19.42;;;6.40;;
22121;SDS011;11227;53.046;10.512;2022-12-16T11:17:14;21.88;;;6.45;;
22121;SDS011;11227;53.046;10.512;2022-12-16T11:21:43;16.27;;;6.38;;
22121;SDS011;11227;53.046;10.512;2022-12-16T11:26:08;16.80;;;5.72;;
22121;SDS011;11227;53.046;10.512;2022-12-16T11:30:36;19.55;;;5.88;;
22121;SDS011;11227;53.046;10.512;2022-12-16T11:34:57;14.27;;;6.15;;
22121;SDS011;11227;53.046;10.512;2022-12-16T11:39:22;14.68;;;6.10;;
22121;SDS011;11227;53.046;10.512;2022-12-16T11:43:45;19.55;;;6.25;;
22121;SDS011;11227;53.046;10.512;2022-12-16T11:48:11;13.55;;;5.65;;
22121;SDS011;11227;53.046;10.512;2022-12-16T11:52:47;16.88;;;5.53;;
22121;SDS011;11227;53.046;10.512;2022-12-16T11:57:16;15.25;;;5.90;;
22121;SDS011;11227;53.046;10.512;2022-12-16T12:01:50;14.73;;;5.60;;
22121;SDS011;11227;53.046;10.512;2022-12-16T12:11:10;14.40;;;6.30;;
22121;SDS011;11227;53.046;10.512;2022-12-16T12:16:02;13.27;;;6.13;;
22121;SDS011;11227;53.046;10.512;2022-12-16T12:20:50;11.70;;;5.68;;
22121;SDS011;11227;53.046;10.512;2022-12-16T12:34:34;13.55;;;6.32;;
22121;SDS011;11227;53.046;10.512;2022-12-16T12:39:10;13.13;;;6.00;;
22121;SDS011;11227;53.046;10.512;2022-12-16T12:49:01;12.10;;;5.20;;
22121;SDS011;11227;53.046;10.512;2022-12-16T12:53:47;14.60;;;5.53;;
22121;SDS011;11227;53.046;10.512;2022-12-16T13:02:40;12.43;;;6.22;;
22121;SDS011;11227;53.046;10.512;2022-12-16T13:07:02;14.07;;;5.53;;
22121;SDS011;11227;53.046;10.512;2022-12-16T13:11:24;14.25;;;5.90;;
22121;SDS011;11227;53.046;10.512;2022-12-16T13:15:44;11.15;;;4.80;;
22121;SDS011;11227;53.046;10.512;2022-12-16T13:20:31;9.02;;;4.95;;
22121;SDS011;11227;53.046;10.512;2022-12-16T13:24:51;13.95;;;5.40;;
22121;SDS011;11227;53.046;10.512;2022-12-16T13:29:29;13.60;;;5.72;;
22121;SDS011;11227;53.046;10.512;2022-12-16T13:33:51;11.30;;;5.00;;
22121;SDS011;11227;53.046;10.512;2022-12-16T13:46:59;12.65;;;6.20;;
22121;SDS011;11227;53.046;10.512;2022-12-16T13:55:56;11.07;;;5.03;;
22121;SDS011;11227;53.046;10.512;2022-12-16T14:00:21;14.90;;;4.80;;
22121;SDS011;11227;53.046;10.512;2022-12-16T14:04:45;10.73;;;4.80;;
22121;SDS011;11227;53.046;10.512;2022-12-16T14:18:30;10.07;;;5.13;;
22121;SDS011;11227;53.046;10.512;2022-12-16T14:22:59;10.52;;;5.03;;
22121;SDS011;11227;53.046;10.512;2022-12-16T14:27:51;9.85;;;5.18;;
22121;SDS011;11227;53.046;10.512;2022-12-16T14:32:32;10.95;;;5.00;;
22121;SDS011;11227;53.046;10.512;2022-12-16T14:36:52;13.70;;;5.65;;
22121;SDS011;11227;53.046;10.512;2022-12-16T14:41:22;8.25;;;4.82;;
22121;SDS011;11227;53.046;10.512;2022-12-16T14:45:47;8.75;;;4.68;;
22121;SDS011;11227;53.046;10.512;2022-12-16T14:50:25;12.77;;;5.22;;
22121;SDS011;11227;53.046;10.512;2022-12-16T14:54:46;12.60;;;5.97;;
22121;SDS011;11227;53.046;10.512;2022-12-16T14:59:08;13.20;;;5.40;;
22121;SDS011;11227;53.046;10.512;2022-12-16T15:03:41;11.45;;;5.32;;
22121;SDS011;11227;53.046;10.512;2022-12-16T15:08:04;9.85;;;5.10;;
22121;SDS011;11227;53.046;10.512;2022-12-16T15:12:30;14.25;;;6.50;;
22121;SDS011;11227;53.046;10.512;2022-12-16T15:16:56;13.95;;;6.53;;
22121;SDS011;11227;53.046;10.512;2022-12-16T15:21:17;14.93;;;5.70;;
22121;SDS011;11227;53.046;10.512;2022-12-16T15:25:37;14.68;;;5.95;;
22121;SDS011;11227;53.046;10.512;2022-12-16T15:34:53;10.90;;;5.45;;
22121;SDS011;11227;53.046;10.512;2022-12-16T15:39:18;11.25;;;5.65;;
22121;SDS011;11227;53.046;10.512;2022-12-16T15:43:44;11.27;;;5.70;;
22121;SDS011;11227;53.046;10.512;2022-12-16T15:48:13;10.00;;;5.53;;
22121;SDS011;11227;53.046;10.512;2022-12-16T15:52:39;10.35;;;5.25;;
22121;SDS011;11227;53.046;10.512;2022-12-16T15:57:22;11.85;;;5.82;;
22121;SDS011;11227;53.046;10.512;2022-12-16T16:06:23;9.68;;;5.53;;
22121;SDS011;11227;53.046;10.512;2022-12-16T16:10:45;8.50;;;4.93;;
22121;SDS011;11227;53.046;10.512;2022-12-16T16:15:05;9.27;;;4.97;;
22121;SDS011;11227;53.046;10.512;2022-12-16T16:19:28;8.57;;;5.07;;
22121;SDS011;11227;53.046;10.512;2022-12-16T16:23:48;9.05;;;4.72;;
22121;SDS011;11227;53.046;10.512;2022-12-16T16:28:08;8.98;;;4.53;;
22121;SDS011;11227;53.046;10.512;2022-12-16T16:32:29;9.18;;;4.65;;
22121;SDS011;11227;53.046;10.512;2022-12-16T16:36:53;7.82;;;5.03;;
22121;SDS011;11227;53.046;10.512;2022-12-16T16:41:15;10.00;;;4.32;;
22121;SDS011;11227;53.046;10.512;2022-12-16T16:45:35;10.13;;;4.95;;
22121;SDS011;11227;53.046;10.512;2022-12-16T16:49:56;10.48;;;4.95;;
22121;SDS011;11227;53.046;10.512;2022-12-16T16:54:19;19.90;;;4.90;;
22121;SDS011;11227;53.046;10.512;2022-12-16T16:58:40;68.70;;;8.77;;
22121;SDS011;11227;53.046;10.512;2022-12-16T17:03:00;27.50;;;6.32;;
22121;SDS011;11227;53.046;10.512;2022-12-16T17:07:21;28.55;;;6.93;;
22121;SDS011;11227;53.046;10.512;2022-12-16T17:11:42;20.42;;;5.05;;
22121;SDS011;11227;53.046;10.512;2022-12-16T17:16:02;21.23;;;5.25;;
22121;SDS011;11227;53.046;10.512;2022-12-16T17:20:23;12.75;;;5.50;;
22121;SDS011;11227;53.046;10.512;2022-12-16T17:24:43;16.08;;;4.38;;
22121;SDS011;11227;53.046;10.512;2022-12-16T17:29:04;11.02;;;5.13;;
22121;SDS011;11227;53.046;10.512;2022-12-16T17:33:24;15.70;;;5.35;;
22121;SDS011;11227;53.046;10.512;2022-12-16T17:37:45;10.50;;;4.45;;
22121;SDS011;11227;53.046;10.512;2022-12-16T17:42:05;10.82;;;4.63;;
22121;SDS011;11227;53.046;10.512;2022-12-16T17:46:25;8.35;;;4.55;;
22121;SDS011;11227;53.046;10.512;2022-12-16T17:50:46;10.38;;;4.63;;
22121;SDS011;11227;53.046;10.512;2022-12-16T17:55:07;10.25;;;5.93;;
22121;SDS011;11227;53.046;10.512;2022-12-16T17:59:27;8.07;;;4.78;;
22121;SDS011;11227;53.046;10.512;2022-12-16T18:03:54;14.63;;;5.00;;
22121;SDS011;11227;53.046;10.512;2022-12-16T18:08:15;10.90;;;4.97;;
22121;SDS011;11227;53.046;10.512;2022-12-16T18:12:35;9.05;;;4.85;;
22121;SDS011;11227;53.046;10.512;2022-12-16T18:16:56;10.02;;;5.57;;
22121;SDS011;11227;53.046;10.512;2022-12-16T18:21:17;6.55;;;4.90;;
22121;SDS011;11227;53.046;10.512;2022-12-16T18:25:37;7.85;;;4.38;;
22121;SDS011;11227;53.046;10.512;2022-12-16T18:29:58;9.52;;;5.47;;
22121;SDS011;11227;53.046;10.512;2022-12-16T18:34:21;8.40;;;5.07;;
22121;SDS011;11227;53.046;10.512;2022-12-16T18:38:41;8.75;;;5.25;;
22121;SDS011;11227;53.046;10.512;2022-12-16T18:43:01;7.95;;;5.72;;
22121;SDS011;11227;53.046;10.512;2022-12-16T18:47:22;9.68;;;4.85;;
22121;SDS011;11227;53.046;10.512;2022-12-16T18:51:43;7.05;;;4.18;;
22121;SDS011;11227;53.046;10.512;2022-12-16T18:56:04;8.77;;;5.03;;
22121;SDS011;11227;53.046;10.512;2022-12-16T19:00:25;9.10;;;4.80;;
22121;SDS011;11227;53.046;10.512;2022-12-16T19:04:46;9.35;;;4.63;;
22121;SDS011;11227;53.046;10.512;2022-12-16T19:09:06;11.18;;;4.97;;
22121;SDS011;11227;53.046;10.512;2022-12-16T19:13:27;10.40;;;4.85;;
22121;SDS011;11227;53.046;10.512;2022-12-16T19:17:47;9.68;;;5.03;;
22121;SDS011;11227;53.046;10.512;2022-12-16T19:22:09;10.35;;;4.90;;
22121;SDS011;11227;53.046;10.512;2022-12-16T19:26:29;9.35;;;5.00;;
22121;SDS011;11227;53.046;10.512;2022-12-16T19:30:53;8.43;;;4.40;;
22121;SDS011;11227;53.046;10.512;2022-12-16T19:35:17;9.23;;;5.07;;
22121;SDS011;11227;53.046;10.512;2022-12-16T19:39:37;7.82;;;4.10;;
22121;SDS011;11227;53.046;10.512;2022-12-16T19:43:59;7.60;;;4.10;;
22121;SDS011;11227;53.046;10.512;2022-12-16T19:48:20;7.45;;;4.53;;
22121;SDS011;11227;53.046;10.512;2022-12-16T19:52:40;8.75;;;4.53;;
22121;SDS011;11227;53.046;10.512;2022-12-16T19:57:01;7.60;;;4.07;;
22121;SDS011;11227;53.046;10.512;2022-12-16T20:01:21;8.25;;;4.47;;
22121;SDS011;11227;53.046;10.512;2022-12-16T20:05:42;7.68;;;4.35;;
22121;SDS011;11227;53.046;10.512;2022-12-16T20:10:02;8.98;;;4.30;;
22121;SDS011;11227;53.046;10.512;2022-12-16T20:14:23;10.43;;;4.93;;
22121;SDS011;11227;53.046;10.512;2022-12-16T20:18:43;6.93;;;4.20;;
22121;SDS011;11227;53.046;10.512;2022-12-16T20:23:04;7.00;;;4.03;;
22121;SDS011;11227;53.046;10.512;2022-12-16T20:27:24;7.20;;;4.20;;
22121;SDS011;11227;53.046;10.512;2022-12-16T20:31:45;8.75;;;4.43;;
22121;SDS011;11227;53.046;10.512;2022-12-16T20:36:05;6.80;;;4.22;;
22121;SDS011;11227;53.046;10.512;2022-12-16T20:40:26;6.65;;;4.47;;
22121;SDS011;11227;53.046;10.512;2022-12-16T20:44:46;5.78;;;3.83;;
22121;SDS011;11227;53.046;10.512;2022-12-16T20:49:07;6.28;;;4.40;;
22121;SDS011;11227;53.046;10.512;2022-12-16T20:53:29;9.15;;;4.63;;
22121;SDS011;11227;53.046;10.512;2022-12-16T20:57:49;8.20;;;4.50;;
22121;SDS011;11227;53.046;10.512;2022-12-16T21:02:10;6.53;;;4.35;;
22121;SDS011;11227;53.046;10.512;2022-12-16T21:06:34;7.65;;;4.22;;
22121;SDS011;11227;53.046;10.512;2022-12-16T21:10:56;6.13;;;3.97;;
22121;SDS011;11227;53.046;10.512;2022-12-16T21:15:17;6.25;;;4.10;;
22121;SDS011;11227;53.046;10.512;2022-12-16T21:19:37;6.82;;;4.57;;
22121;SDS011;11227;53.046;10.512;2022-12-16T21:23:58;5.82;;;4.00;;
22121;SDS011;11227;53.046;10.512;2022-12-16T21:28:18;6.95;;;4.05;;
22121;SDS011;11227;53.046;10.512;2022-12-16T21:32:39;8.07;;;4.90;;
22121;SDS011;11227;53.046;10.512;2022-12-16T21:36:59;5.40;;;4.03;;
22121;SDS011;11227;53.046;10.512;2022-12-16T21:41:19;6.60;;;4.30;;
22121;SDS011;11227;53.046;10.512;2022-12-16T21:45:40;8.05;;;4.18;;
22121;SDS011;11227;53.046;10.512;2022-12-16T21:50:00;5.13;;;3.55;;
22121;SDS011;11227;53.046;10.512;2022-12-16T21:54:20;5.97;;;3.67;;
22121;SDS011;11227;53.046;10.512;2022-12-16T21:58:41;6.50;;;4.43;;
22121;SDS011;11227;53.046;10.512;2022-12-16T22:03:02;8.85;;;4.38;;
22121;SDS011;11227;53.046;10.512;2022-12-16T22:07:22;6.43;;;4.20;;
22121;SDS011;11227;53.046;10.512;2022-12-16T22:11:43;5.70;;;3.47;;
22121;SDS011;11227;53.046;10.512;2022-12-16T22:16:03;7.47;;;4.18;;
22121;SDS011;11227;53.046;10.512;2022-12-16T22:20:24;7.15;;;4.57;;
22121;SDS011;11227;53.046;10.512;2022-12-16T22:24:45;6.97;;;4.20;;
22121;SDS011;11227;53.046;10.512;2022-12-16T22:29:14;4.60;;;3.53;;
22121;SDS011;11227;53.046;10.512;2022-12-16T22:33:37;6.40;;;4.30;;
22121;SDS011;11227;53.046;10.512;2022-12-16T22:37:58;6.97;;;4.43;;
22121;SDS011;11227;53.046;10.512;2022-12-16T22:42:18;6.28;;;4.20;;
22121;SDS011;11227;53.046;10.512;2022-12-16T22:46:39;6.10;;;4.25;;
22121;SDS011;11227;53.046;10.512;2022-12-16T22:51:00;7.57;;;4.63;;
22121;SDS011;11227;53.046;10.512;2022-12-16T22:55:20;6.40;;;4.10;;
22121;SDS011;11227;53.046;10.512;2022-12-16T22:59:41;6.82;;;4.10;;
22121;SDS011;11227;53.046;10.512;2022-12-16T23:04:02;5.53;;;3.70;;
22121;SDS011;11227;53.046;10.512;2022-12-16T23:08:22;5.93;;;4.07;;
22121;SDS011;11227;53.046;10.512;2022-12-16T23:12:43;6.72;;;4.35;;
22121;SDS011;11227;53.046;10.512;2022-12-16T23:17:04;5.55;;;3.60;;
22121;SDS011;11227;53.046;10.512;2022-12-16T23:21:24;6.45;;;3.92;;
22121;SDS011;11227;53.046;10.512;2022-12-16T23:25:58;8.30;;;4.53;;
22121;SDS011;11227;53.046;10.512;2022-12-16T23:30:19;8.07;;;4.30;;
22121;SDS011;11227;53.046;10.512;2022-12-16T23:34:40;8.18;;;4.35;;
22121;SDS011;11227;53.046;10.512;2022-12-16T23:39:00;5.57;;;3.90;;
22121;SDS011;11227;53.046;10.512;2022-12-16T23:43:21;5.22;;;3.88;;
22121;SDS011;11227;53.046;10.512;2022-12-16T23:47:42;5.78;;;3.33;;
22121;SDS011;11227;53.046;10.512;2022-12-16T23:52:02;5.85;;;3.72;;
22121;SDS011;11227;53.046;10.512;2022-12-16T23:56:23;5.40;;;4.07;;
